Time;durP1;ratioP1;P1;durP2;ratioP2;P2;SDS_P1;SDS_P2;PMS_P1;PMS_P2;Temp;Humidity;BMP_temperature;BMP_pressure;BME280_temperature;BME280_humidity;BME280_pressure;Samples;Min_cycle;Max_cycle;Signal;HPM_P1;HPM_P2
2021/05/10 00:01:23;;;;;;;3.27;1.80;;;;;;;21.76;55.67;101594.41;1861332;75;22638;-63
2021/05/10 00:03:58;;;;;;;2.20;1.62;;;;;;;21.73;55.66;101585.87;1828321;76;22822;-63
2021/05/10 00:06:34;;;;;;;2.60;1.67;;;;;;;21.71;55.70;101586.20;1860330;75;22660;-61
2021/05/10 00:09:09;;;;;;;1.95;1.40;;;;;;;21.69;55.69;101595.92;1884327;74;23335;-60
2021/05/10 00:11:44;;;;;;;2.52;1.67;;;;;;;21.66;55.69;101591.83;1864471;75;23234;-61
2021/05/10 00:14:37;;;;;;;2.62;1.85;;;;;;;21.64;55.70;101588.53;1835150;76;22790;-61
2021/05/10 00:16:57;;;;;;;2.58;1.67;;;;;;;21.64;55.73;101584.97;1831589;76;22754;-63
2021/05/10 00:19:32;;;;;;;4.40;2.02;;;;;;;21.61;55.72;101585.55;1856324;75;22767;-61
2021/05/10 00:22:07;;;;;;;3.90;2.00;;;;;;;21.58;55.74;101582.02;1865146;75;22666;-63
2021/05/10 00:24:42;;;;;;;3.40;1.77;;;;;;;21.57;55.73;101588.68;1857862;75;22707;-64
2021/05/10 00:27:17;;;;;;;2.58;1.85;;;;;;;21.55;55.76;101586.80;1860842;75;22680;-61
2021/05/10 00:29:53;;;;;;;3.20;1.95;;;;;;;21.52;55.78;101581.28;1859218;76;22677;-61
2021/05/10 00:32:28;;;;;;;2.30;1.52;;;;;;;21.50;55.76;101586.33;1854451;75;22686;-63
2021/05/10 00:35:04;;;;;;;2.37;1.60;;;;;;;21.49;55.76;101581.91;1864333;75;22627;-63
2021/05/10 00:37:39;;;;;;;2.75;2.00;;;;;;;21.47;55.76;101580.02;1841632;75;28488;-63
2021/05/10 00:40:20;;;;;;;4.28;1.70;;;;;;;21.60;55.83;101581.96;1857970;75;23264;-63
2021/05/10 00:42:55;;;;;;;3.62;1.80;;;;;;;21.59;55.81;101586.44;1859833;75;23263;-63
2021/05/10 00:45:30;;;;;;;2.60;1.47;;;;;;;21.56;55.79;101579.55;1887279;74;22601;-63
2021/05/10 00:48:07;;;;;;;1.72;1.37;;;;;;;21.53;55.75;101580.17;1857919;75;23259;-63
2021/05/10 00:50:42;;;;;;;2.93;2.07;;;;;;;21.51;55.76;101583.00;1856911;74;27884;-63
2021/05/10 00:53:17;;;;;;;2.30;1.90;;;;;;;21.62;55.75;101578.34;1889534;74;23230;-64
2021/05/10 00:55:54;;;;;;;2.95;1.57;;;;;;;21.60;55.74;101575.04;1862084;75;22650;-61
2021/05/10 00:58:29;;;;;;;2.92;2.00;;;;;;;21.56;55.70;101580.94;1838485;75;28466;-63
2021/05/10 01:01:04;;;;;;;2.60;1.70;;;;;;;21.69;55.63;101578.75;1867057;75;22704;-63
2021/05/10 01:03:40;;;;;;;3.62;1.77;;;;;;;21.65;55.61;101572.18;1845982;76;22696;-61
2021/05/10 01:06:16;;;;;;;1.93;1.63;;;;;;;21.60;55.60;101574.25;1842153;75;28840;-61
2021/05/10 01:08:51;;;;;;;3.03;1.90;;;;;;;21.73;55.51;101582.55;1839941;75;27848;-60
2021/05/10 01:11:27;;;;;;;2.40;1.67;;;;;;;21.86;55.33;101577.58;1826513;76;22751;-61
2021/05/10 01:14:03;;;;;;;2.10;1.62;;;;;;;21.79;55.33;101578.56;1858938;75;22614;-61
2021/05/10 01:16:38;;;;;;;3.03;1.80;;;;;;;21.71;55.32;101576.51;1857201;74;27814;-61
2021/05/10 01:19:14;;;;;;;1.45;1.20;;;;;;;21.81;55.25;101578.27;1859582;75;22759;-61
2021/05/10 01:21:49;;;;;;;2.92;1.70;;;;;;;21.74;55.28;101577.27;1844774;75;27793;-63
2021/05/10 01:24:27;;;;;;;2.00;1.42;;;;;;;21.85;55.20;101577.31;1858891;75;22690;-61
2021/05/10 01:27:03;;;;;;;2.70;1.32;;;;;;;21.76;55.23;101578.36;1861141;75;22716;-63
2021/05/10 01:29:38;;;;;;;2.57;1.70;;;;;;;21.69;55.27;101578.75;1842855;75;27878;-61
2021/05/10 01:32:13;;;;;;;3.67;1.82;;;;;;;21.78;55.24;101572.75;1834447;76;23046;-61
2021/05/10 01:34:48;;;;;;;3.05;1.50;;;;;;;21.71;55.27;101570.97;1833904;77;22734;-61
2021/05/10 01:37:23;;;;;;;1.40;1.10;;;;;;;21.62;55.29;101568.65;1857611;75;22764;-63
2021/05/10 01:39:59;;;;;;;2.10;1.30;;;;;;;21.56;55.35;101574.01;1876348;74;22612;-60
2021/05/10 01:42:35;;;;;;;1.50;1.30;;;;;;;21.51;55.40;101567.77;1862505;75;23303;-64
2021/05/10 01:45:11;;;;;;;2.72;1.45;;;;;;;21.45;55.44;101565.65;1858702;75;23362;-63
2021/05/10 01:47:46;;;;;;;2.77;1.53;;;;;;;21.39;55.49;101562.14;1845495;75;27920;-61
2021/05/10 01:50:22;;;;;;;2.02;1.30;;;;;;;21.51;55.59;101566.39;1835150;76;22704;-61
2021/05/10 01:52:57;;;;;;;2.37;1.60;;;;;;;21.47;55.57;101563.41;1784405;77;27906;-63
2021/05/10 01:55:52;;;;;;;2.72;1.10;;;;;;;21.59;55.49;101561.52;1845940;75;22702;-63
2021/05/10 01:58:27;;;;;;;2.42;1.40;;;;;;;21.51;55.54;101560.84;1814990;78;22331;-61
2021/05/10 02:01:03;;;;;;;1.98;1.20;;;;;;;21.46;55.52;101560.94;1855350;75;22696;-63
2021/05/10 02:03:40;;;;;;;2.75;1.05;;;;;;;21.39;55.55;101559.94;1858151;75;22697;-64
2021/05/10 02:06:18;;;;;;;1.72;1.40;;;;;;;21.34;55.59;101569.73;1863834;75;22237;-63
2021/05/10 02:08:53;;;;;;;1.87;1.25;;;;;;;21.29;55.63;101575.36;1862658;75;22712;-61
2021/05/10 02:11:28;;;;;;;2.17;1.22;;;;;;;21.24;55.66;101574.88;1856244;75;22269;-61
2021/05/10 02:14:05;;;;;;;1.50;1.10;;;;;;;21.20;55.68;101582.16;1842480;75;22868;-63
2021/05/10 02:16:40;;;;;;;2.47;1.50;;;;;;;21.18;55.73;101576.64;1847638;75;28443;-63
2021/05/10 02:19:15;;;;;;;1.87;1.10;;;;;;;21.28;55.85;101580.62;1861777;75;22693;-63
2021/05/10 02:21:51;;;;;;;1.77;1.20;;;;;;;21.26;55.86;101578.74;1857980;75;22670;-63
2021/05/10 02:24:26;;;;;;;1.30;0.98;;;;;;;21.23;55.87;101576.56;1885542;74;22732;-61
2021/05/10 02:27:01;;;;;;;2.12;1.20;;;;;;;21.19;55.87;101577.73;1843081;76;23347;-61
2021/05/10 02:29:36;;;;;;;2.17;1.12;;;;;;;21.16;55.91;101585.27;1859652;75;22728;-61
2021/05/10 02:32:11;;;;;;;1.95;1.15;;;;;;;21.13;55.92;101585.05;1863748;75;22738;-64
2021/05/10 02:34:46;;;;;;;1.00;0.88;;;;;;;21.09;55.97;101581.22;1829543;76;22669;-61
2021/05/10 02:37:22;;;;;;;1.10;0.90;;;;;;;21.06;55.99;101585.95;1862595;75;22606;-61
2021/05/10 02:39:58;;;;;;;2.70;1.57;;;;;;;21.04;56.01;101582.68;1863896;74;27339;-64
2021/05/10 02:42:33;;;;;;;3.92;1.50;;;;;;;21.14;56.08;101588.88;1820494;77;22766;-61
2021/05/10 02:45:10;;;;;;;2.08;1.25;;;;;;;21.12;56.05;101584.23;1875129;74;22651;-61
2021/05/10 02:47:46;;;;;;;2.00;1.25;;;;;;;21.09;56.07;101584.78;1867049;76;21471;-61
2021/05/10 02:50:23;;;;;;;1.95;1.15;;;;;;;21.05;56.08;101582.95;1841236;75;22707;-61
2021/05/10 02:52:58;;;;;;;1.92;1.15;;;;;;;21.02;56.11;101582.97;1858860;75;22153;-63
2021/05/10 02:55:33;;;;;;;1.65;1.20;;;;;;;20.99;56.14;101584.97;1858924;75;22997;-61
2021/05/10 02:58:08;;;;;;;1.98;0.93;;;;;;;20.95;56.16;101589.45;1862526;75;22644;-61
2021/05/10 03:00:43;;;;;;;1.40;1.00;;;;;;;20.93;56.16;101584.77;1856667;75;22744;-61
2021/05/10 03:03:19;;;;;;;1.57;1.05;;;;;;;20.92;56.19;101597.78;1843393;75;22270;-61
2021/05/10 03:05:54;;;;;;;1.12;0.90;;;;;;;20.88;56.22;101592.59;1832215;76;24239;-63
2021/05/10 03:08:29;;;;;;;1.85;1.00;;;;;;;20.87;56.21;101593.73;1860527;75;22742;-63
2021/05/10 03:11:04;;;;;;;1.90;1.10;;;;;;;20.85;56.25;101597.91;1884255;74;22669;-61
2021/05/10 03:13:39;;;;;;;1.42;0.90;;;;;;;20.83;56.26;101592.70;1860561;75;23333;-63
2021/05/10 03:16:15;;;;;;;1.62;1.05;;;;;;;20.82;56.28;101597.95;1879948;74;22652;-61
2021/05/10 03:18:50;;;;;;;1.72;0.95;;;;;;;20.80;56.29;101600.19;1838909;76;22673;-64
2021/05/10 03:21:25;;;;;;;1.70;1.10;;;;;;;20.80;56.30;101602.95;1858910;75;22709;-61
2021/05/10 03:24:01;;;;;;;1.82;1.07;;;;;;;20.78;56.33;101606.59;1864033;75;23334;-61
2021/05/10 03:26:37;;;;;;;2.70;1.37;;;;;;;20.77;56.36;101605.50;1839622;75;27890;-61
2021/05/10 03:29:12;;;;;;;2.00;1.30;;;;;;;20.89;56.39;101607.24;1827079;76;28220;-63
2021/05/10 03:31:48;;;;;;;1.47;0.98;;;;;;;21.06;56.25;101609.47;1863261;75;23258;-61
2021/05/10 03:34:23;;;;;;;1.35;1.00;;;;;;;21.02;56.25;101607.05;1868245;75;22726;-61
2021/05/10 03:36:58;;;;;;;1.40;0.82;;;;;;;20.96;56.24;101602.17;1865635;75;22655;-61
2021/05/10 03:39:33;;;;;;;1.82;0.85;;;;;;;20.92;56.26;101604.70;1869349;75;22660;-64
2021/05/10 03:42:09;;;;;;;1.77;1.10;;;;;;;20.89;56.27;101605.30;1864440;75;23373;-61
2021/05/10 03:44:44;;;;;;;1.90;1.00;;;;;;;20.86;56.28;101605.91;1847502;75;27851;-61
2021/05/10 03:47:32;;;;;;;2.17;1.00;;;;;;;20.95;56.24;101611.03;1863054;75;22734;-63
2021/05/10 03:50:00;;;;;;;1.12;0.80;;;;;;;20.92;56.26;101611.61;1891042;74;22647;-60
2021/05/10 03:52:35;;;;;;;2.80;1.10;;;;;;;20.89;56.27;101612.22;1849915;75;28420;-63
2021/05/10 03:55:14;;;;;;;1.15;0.90;;;;;;;21.02;56.23;101616.73;1862033;75;22705;-61
2021/05/10 03:57:49;;;;;;;1.02;0.80;;;;;;;20.96;56.23;101607.70;1837480;76;22720;-61
2021/05/10 04:00:25;;;;;;;1.30;0.90;;;;;;;20.92;56.26;101612.99;1857397;75;22737;-60
2021/05/10 04:03:01;;;;;;;1.47;1.00;;;;;;;20.88;56.27;101609.74;1857211;75;22777;-61
2021/05/10 04:14:02;;;;;;;2.35;1.00;;;;;;;21.18;56.82;101616.20;1860179;75;22673;-58
2021/05/10 04:16:38;;;;;;;2.47;1.00;;;;;;;21.22;56.89;101621.40;1846733;75;28741;-58
2021/05/10 04:19:13;;;;;;;2.02;0.80;;;;;;;21.41;56.72;101617.22;1828226;76;22680;-63
2021/05/10 04:21:48;;;;;;;0.93;0.80;;;;;;;21.46;56.67;101619.90;1829141;76;22688;-58
2021/05/10 04:24:24;;;;;;;3.20;1.27;;;;;;;21.50;56.54;101629.80;1861365;75;22706;-58
2021/05/10 04:27:03;;;;;;;3.50;2.30;;;;;;;21.52;56.45;101622.81;1845830;75;28291;-61
2021/05/10 04:29:37;;;;;;;1.87;1.07;;;;;;;21.69;56.17;101623.63;1856163;75;22269;-59
2021/05/10 04:32:12;;;;;;;2.80;0.98;;;;;;;21.69;56.15;101624.44;1825161;76;22726;-61
2021/05/10 04:34:48;;;;;;;1.55;0.75;;;;;;;21.71;56.08;101621.38;1863389;75;22384;-59
2021/05/10 04:37:24;;;;;;;3.10;1.30;;;;;;;21.70;56.02;101617.78;1842932;76;28521;-59
2021/05/10 04:39:59;;;;;;;1.67;0.70;;;;;;;21.85;55.80;101618.08;1865107;75;23262;-62
2021/05/10 04:42:34;;;;;;;1.87;0.98;;;;;;;21.85;55.80;101616.69;1864442;75;22694;-62
2021/05/10 04:45:11;;;;;;;1.80;0.90;;;;;;;21.85;55.76;101618.87;1861467;75;22733;-61
2021/05/10 04:47:47;;;;;;;1.32;0.80;;;;;;;21.84;55.73;101619.20;1886713;74;22608;-61
2021/05/10 04:50:23;;;;;;;2.60;1.00;;;;;;;21.84;55.71;101628.89;1860111;75;22673;-62
2021/05/10 04:52:58;;;;;;;2.65;1.50;;;;;;;21.83;55.71;101622.52;1809984;76;27911;-62
2021/05/10 04:55:33;;;;;;;2.30;1.20;;;;;;;21.96;55.66;101622.31;1858824;75;22675;-61
2021/05/10 04:58:08;;;;;;;2.05;1.32;;;;;;;21.95;55.69;101628.14;1842179;76;22708;-67
2021/05/10 05:00:44;;;;;;;9.98;4.05;;;;;;;21.93;55.69;101627.09;1837968;76;22704;-61
2021/05/10 05:03:19;;;;;;;19.75;7.70;;;;;;;21.94;55.71;101634.25;1858712;75;23097;-62
2021/05/10 05:05:54;;;;;;;16.23;9.13;;;;;;;21.93;55.78;101629.03;1856908;75;23317;-62
2021/05/10 05:08:29;;;;;;;21.95;10.98;;;;;;;21.93;55.88;101622.93;1838741;76;22695;-62
2021/05/10 05:11:04;;;;;;;18.67;10.70;;;;;;;21.94;55.98;101623.76;1868004;75;22692;-63
2021/05/10 05:13:40;;;;;;;23.00;12.23;;;;;;;21.94;56.05;101625.14;1828585;77;22698;-63
2021/05/10 05:16:15;;;;;;;19.75;11.53;;;;;;;21.98;56.12;101630.33;1826114;76;22733;-60
2021/05/10 05:18:50;;;;;;;27.45;12.18;;;;;;;22.01;56.26;101629.14;1878764;75;22743;-61
2021/05/10 05:21:26;;;;;;;23.67;12.30;;;;;;;22.05;56.43;101632.94;1825802;76;22677;-60
2021/05/10 05:24:01;;;;;;;24.70;12.30;;;;;;;22.07;56.53;101638.16;1861857;75;22787;-61
2021/05/10 05:26:37;;;;;;;25.77;13.62;;;;;;;22.08;56.55;101635.64;1878854;74;22864;-60
2021/05/10 05:29:12;;;;;;;21.40;11.93;;;;;;;22.11;56.54;101639.17;1825232;76;22770;-60
2021/05/10 05:31:49;;;;;;;23.18;12.05;;;;;;;22.12;56.48;101640.27;1865540;75;23002;-63
2021/05/10 05:34:24;;;;;;;18.02;10.85;;;;;;;22.14;56.44;101642.18;1862508;76;20982;-66
2021/05/10 05:37:00;;;;;;;25.40;11.33;;;;;;;22.15;56.42;101638.85;1870972;74;23334;-62
2021/05/10 05:39:35;;;;;;;25.55;13.55;;;;;;;22.17;56.38;101640.17;1857976;75;23135;-62
2021/05/10 05:42:10;;;;;;;17.23;10.30;;;;;;;22.18;56.30;101641.82;1863874;75;22714;-65
2021/05/10 05:47:28;;;;;;;19.55;10.08;;;;;;;22.20;56.23;101648.42;1879549;74;22662;-63
2021/05/10 05:50:05;;;;;;;18.05;9.43;;;;;;;22.20;56.21;101650.63;1869373;75;22879;-63
2021/05/10 05:52:40;;;;;;;14.05;8.58;;;;;;;22.21;56.20;101654.23;1871120;74;21985;-63
2021/05/10 05:55:15;;;;;;;17.32;8.73;;;;;;;22.21;56.19;101651.45;1828900;76;22782;-64
2021/05/10 05:57:50;;;;;;;11.08;7.87;;;;;;;22.20;56.18;101650.63;1829711;77;23009;-63
2021/05/10 06:00:26;;;;;;;13.55;7.83;;;;;;;22.20;56.16;101652.58;1835217;76;23320;-63
2021/05/10 06:03:02;;;;;;;17.57;10.23;;;;;;;22.19;56.14;101650.37;1815830;76;28526;-61
2021/05/10 06:05:37;;;;;;;12.45;8.63;;;;;;;22.31;56.16;101652.09;1868560;75;22647;-63
2021/05/10 06:08:14;;;;;;;13.25;8.33;;;;;;;22.30;56.19;101649.61;1878930;74;22736;-63
2021/05/10 06:10:50;;;;;;;14.63;7.70;;;;;;;22.30;56.17;101655.16;1834903;76;23309;-60
2021/05/10 06:13:25;;;;;;;15.17;8.97;;;;;;;;;;1844387;75;28516;-63
2021/05/10 06:16:01;;;;;;;13.70;7.83;;;;;;;22.39;56.03;101654.69;1862561;75;22738;-60
2021/05/10 06:18:36;;;;;;;12.10;6.70;;;;;;;22.36;56.08;101652.55;1858307;75;22657;-61
2021/05/10 06:21:11;;;;;;;11.73;6.58;;;;;;;22.33;56.08;101645.66;1809265;77;22659;-62
2021/05/10 06:23:48;;;;;;;13.10;6.83;;;;;;;22.31;56.04;101648.48;1860603;75;23346;-60
2021/05/10 06:26:23;;;;;;;8.85;5.90;;;;;;;;;;1832937;76;22692;-62
2021/05/10 06:28:59;;;;;;;10.93;5.75;;;;;;;22.25;56.04;101656.64;1835286;76;22702;-60
2021/05/10 06:31:34;;;;;;;10.98;6.35;;;;;;;22.21;56.05;101651.45;1859067;75;22691;-62
2021/05/10 06:34:09;;;;;;;8.80;5.78;;;;;;;22.19;56.07;101655.12;1858978;75;22686;-60
2021/05/10 06:36:44;;;;;;;10.23;5.53;;;;;;;22.17;56.06;101653.20;1852699;75;23185;-60
2021/05/10 06:39:20;;;;;;;8.55;5.33;;;;;;;22.14;56.09;101651.88;1855817;75;23289;-60
2021/05/10 06:41:55;;;;;;;8.48;5.15;;;;;;;22.12;56.10;101658.84;1842194;76;23403;-63
2021/05/10 06:44:30;;;;;;;9.25;5.22;;;;;;;22.10;56.12;101659.73;1859666;75;22759;-63
2021/05/10 06:47:05;;;;;;;8.33;4.37;;;;;;;22.09;56.13;101659.47;1829009;77;22428;-63
2021/05/10 06:49:41;;;;;;;7.60;4.78;;;;;;;22.06;56.15;101651.78;1857842;75;23320;-60
2021/05/10 06:52:16;;;;;;;6.03;4.05;;;;;;;22.06;56.17;101662.86;1834863;76;23353;-63
2021/05/10 06:54:51;;;;;;;7.65;4.58;;;;;;;22.02;56.19;101664.05;1866037;75;22769;-60
2021/05/10 06:57:26;;;;;;;7.15;4.37;;;;;;;22.01;56.20;101659.63;1842898;75;23595;-61
2021/05/10 07:00:02;;;;;;;7.00;4.12;;;;;;;22.00;56.22;101655.20;1857328;75;22779;-61
2021/05/10 07:02:37;;;;;;;11.97;5.33;;;;;;;21.99;56.22;101651.34;1868351;74;38224;-61
2021/05/10 07:05:13;;;;;;;9.18;4.65;;;;;;;22.09;56.22;101651.98;1883488;74;22931;-64
2021/05/10 07:07:48;;;;;;;9.38;4.80;;;;;;;22.09;56.23;101656.13;1876140;74;22382;-60
2021/05/10 07:10:24;;;;;;;7.47;4.40;;;;;;;22.07;56.23;101659.77;1834641;75;23400;-60
2021/05/10 07:12:59;;;;;;;9.17;5.30;;;;;;;22.06;56.23;101660.09;1803154;78;28012;-60
2021/05/10 07:15:35;;;;;;;7.90;4.60;;;;;;;22.17;56.11;101656.80;1829950;76;22695;-61
2021/05/10 07:18:14;;;;;;;6.92;4.30;;;;;;;22.14;56.15;101654.66;1880154;74;22664;-63
2021/05/10 07:20:49;;;;;;;6.92;3.95;;;;;;;22.12;56.13;101656.89;1867922;76;23326;-63
2021/05/10 07:23:24;;;;;;;7.10;4.22;;;;;;;22.10;56.13;101652.80;1828306;76;22675;-63
2021/05/10 07:26:00;;;;;;;5.50;3.90;;;;;;;22.08;56.15;101656.43;1858297;76;22805;-63
2021/05/10 07:28:35;;;;;;;8.85;4.17;;;;;;;22.04;56.14;101660.95;1867455;75;22671;-60
2021/05/10 07:31:11;;;;;;;7.73;4.90;;;;;;;22.02;56.13;101664.61;1840129;75;38100;-60
2021/05/10 07:33:46;;;;;;;7.60;4.20;;;;;;;22.13;56.06;101661.88;1863446;75;23573;-63
2021/05/10 07:36:22;;;;;;;6.25;3.22;;;;;;;22.10;56.07;101663.33;1858098;75;23284;-60
2021/05/10 07:38:57;;;;;;;7.10;4.73;;;;;;;22.08;56.06;101664.75;1819047;75;28625;-61
2021/05/10 07:41:33;;;;;;;7.05;3.33;;;;;;;22.19;55.90;101658.69;1837864;76;22802;-60
2021/05/10 07:44:08;;;;;;;5.72;3.08;;;;;;;22.15;55.95;101656.27;1868909;75;22806;-60
2021/05/10 07:46:43;;;;;;;6.60;3.10;;;;;;;22.14;55.96;101660.76;1857883;75;22815;-59
2021/05/10 07:49:19;;;;;;;5.33;2.85;;;;;;;22.11;55.97;101653.86;1863912;75;23407;-59
2021/05/10 07:51:55;;;;;;;6.67;3.77;;;;;;;22.09;56.00;101656.70;1857325;76;28981;-59
2021/05/10 07:54:30;;;;;;;4.92;3.52;;;;;;;22.21;55.87;101655.61;1835177;76;22793;-59
2021/05/10 07:57:07;;;;;;;5.20;3.02;;;;;;;22.16;55.91;101649.61;1837906;76;22692;-60
2021/05/10 07:59:43;;;;;;;4.83;3.00;;;;;;;22.13;55.90;101658.55;1884253;74;22661;-61
2021/05/10 08:02:22;;;;;;;5.80;3.40;;;;;;;22.09;55.87;101651.98;1847303;75;28664;-61
2021/05/10 08:04:56;;;;;;;5.28;3.10;;;;;;;22.19;55.50;101646.21;1859380;75;22737;-61
2021/05/10 08:07:31;;;;;;;4.35;2.33;;;;;;;22.14;55.43;101644.13;1839894;76;22710;-62
2021/05/10 08:10:07;;;;;;;3.20;2.40;;;;;;;22.10;55.35;101648.64;1869051;75;22737;-62
2021/05/10 08:12:42;;;;;;;4.83;2.98;;;;;;;22.05;55.22;101644.02;1839545;75;27765;-62
2021/05/10 08:15:17;;;;;;;4.53;2.47;;;;;;;22.15;54.57;101641.62;1847229;75;22750;-62
2021/05/10 08:17:53;;;;;;;3.87;2.40;;;;;;;22.10;54.48;101645.88;1870000;75;22741;-60
2021/05/10 08:20:48;;;;;;;4.03;2.30;;;;;;;22.06;54.32;101643.47;1860375;75;22286;-64
2021/05/10 08:23:43;;;;;;;4.37;1.95;;;;;;;22.00;54.21;101647.45;1814220;77;22896;-62
2021/05/10 08:26:18;;;;;;;3.72;1.98;;;;;;;21.94;54.09;101641.77;1833003;75;22869;-60
2021/05/10 08:28:53;;;;;;;3.35;2.05;;;;;;;21.89;53.95;101637.11;1860015;75;23247;-62
2021/05/10 08:31:29;;;;;;;2.80;1.98;;;;;;;21.87;53.80;101635.20;1859547;75;23347;-62
2021/05/10 08:34:04;;;;;;;2.92;1.85;;;;;;;21.83;53.65;101632.22;1840779;75;23276;-63
2021/05/10 08:36:40;;;;;;;4.08;2.12;;;;;;;21.81;53.51;101635.05;1856235;75;22816;-63
2021/05/10 08:39:15;;;;;;;4.17;1.98;;;;;;;21.78;53.34;101628.16;1888468;74;22556;-61
2021/05/10 08:41:50;;;;;;;3.15;2.15;;;;;;;21.75;53.20;101629.34;1858348;76;23377;-59
2021/05/10 08:44:25;;;;;;;3.65;1.72;;;;;;;21.74;53.05;101633.22;1843870;75;22795;-62
2021/05/10 08:47:00;;;;;;;4.45;1.87;;;;;;;21.72;52.92;101638.27;1859218;75;22683;-63
2021/05/10 08:49:36;;;;;;;3.20;1.65;;;;;;;21.70;52.78;101630.81;1864175;75;22723;-62
2021/05/10 08:52:11;;;;;;;3.37;1.45;;;;;;;21.69;52.69;101626.39;1829258;76;22744;-62
2021/05/10 08:54:46;;;;;;;5.35;1.80;;;;;;;21.67;52.54;101622.56;1845004;76;22708;-61
2021/05/10 08:57:22;;;;;;;2.60;1.50;;;;;;;21.67;52.35;101621.17;1867593;75;23208;-63
2021/05/10 08:59:57;;;;;;;2.52;1.60;;;;;;;21.68;52.20;101620.62;1867602;74;22713;-63
2021/05/10 09:02:33;;;;;;;5.45;1.40;;;;;;;21.67;52.01;101612.87;1877427;74;23158;-61
2021/05/10 09:05:18;;;;;;;3.60;1.80;;;;;;;21.68;51.81;101608.16;1828962;76;28463;-63
2021/05/10 09:08:07;;;;;;;2.12;1.27;;;;;;;21.80;50.84;101607.09;1831811;76;23278;-64
2021/05/10 09:10:49;;;;;;;2.72;1.30;;;;;;;21.79;50.73;101608.20;1840538;76;23302;-63
2021/05/10 09:13:59;;;;;;;5.30;1.50;;;;;;;21.78;50.63;101603.78;1868635;75;22755;-60
2021/05/10 09:16:36;;;;;;;2.55;1.32;;;;;;;21.75;50.51;101602.46;1875392;74;22643;-64
2021/05/10 09:19:11;;;;;;;2.05;1.32;;;;;;;21.72;50.43;101596.16;1877330;75;22596;-63
2021/05/10 09:21:56;;;;;;;3.98;1.20;;;;;;;21.71;50.33;101595.89;1838612;76;23733;-64
2021/05/10 09:24:31;;;;;;;2.85;1.22;;;;;;;21.68;50.15;101590.98;1881601;74;23241;-63
2021/05/10 09:27:21;;;;;;;4.03;1.70;;;;;;;21.67;50.03;101589.33;1838609;76;23232;-64
2021/05/10 09:30:22;;;;;;;4.00;2.00;;;;;;;21.67;49.89;101586.55;1841372;76;23347;-63
2021/05/10 09:32:57;;;;;;;2.60;1.50;;;;;;;21.66;49.76;101584.91;1825306;76;22657;-64
2021/05/10 09:35:33;;;;;;;2.00;1.50;;;;;;;21.65;49.65;101578.28;1826346;76;22702;-61
2021/05/10 09:38:08;;;;;;;2.42;1.50;;;;;;;21.65;49.54;101579.66;1834743;76;23312;-61
2021/05/10 09:40:59;;;;;;;3.15;1.50;;;;;;;21.65;49.41;101585.20;1836550;76;22343;-64
2021/05/10 09:43:39;;;;;;;2.77;1.60;;;;;;;21.65;49.25;101568.03;1877756;74;22947;-65
2021/05/10 09:46:14;;;;;;;2.22;1.35;;;;;;;21.67;49.17;101576.86;1851200;76;22212;-64
2021/05/10 09:48:49;;;;;;;1.80;1.10;;;;;;;21.68;49.08;101577.13;1836615;76;22657;-62
2021/05/10 09:51:24;;;;;;;2.20;1.42;;;;;;;21.70;48.94;101570.70;1833811;77;22709;-64
2021/05/10 09:54:00;;;;;;;1.98;1.60;;;;;;;21.72;48.85;101563.48;1874179;74;23262;-64
2021/05/10 09:56:57;;;;;;;1.95;1.27;;;;;;;21.75;48.77;101562.86;1809926;76;23505;-64
2021/05/10 09:59:32;;;;;;;2.70;1.55;;;;;;;21.77;48.71;101554.48;1885712;75;22766;-64
2021/05/10 10:02:11;;;;;;;2.47;1.40;;;;;;;21.79;48.68;101557.78;1890303;74;23235;-64
2021/05/10 10:04:50;;;;;;;2.10;1.30;;;;;;;21.84;48.63;101548.55;1842195;76;23681;-64
2021/05/10 10:07:29;;;;;;;1.32;1.17;;;;;;;21.88;48.61;101543.48;1861962;76;22692;-64
2021/05/10 10:10:06;;;;;;;2.37;1.40;;;;;;;21.92;48.56;101535.92;1877488;74;22583;-65
2021/05/10 10:12:42;;;;;;;1.90;1.22;;;;;;;21.95;48.55;101534.77;1869620;74;22016;-65
2021/05/10 10:15:17;;;;;;;2.87;1.27;;;;;;;21.99;48.54;101520.55;1857650;75;22700;-64
2021/05/10 10:17:52;;;;;;;5.28;1.60;;;;;;;22.02;48.54;101521.34;1863052;75;22661;-63
2021/05/10 10:20:28;;;;;;;2.45;1.40;;;;;;;22.06;48.56;101514.05;1831728;77;22887;-63
2021/05/10 10:23:06;;;;;;;10.03;2.13;;;;;;;22.08;48.67;101510.94;1865505;74;27998;-64
2021/05/10 10:25:42;;;;;;;4.55;1.90;;;;;;;22.22;48.94;101507.02;1861538;75;22777;-63
2021/05/10 10:28:20;;;;;;;2.12;1.62;;;;;;;22.23;49.13;101503.12;1843177;75;22787;-66
2021/05/10 10:31:26;;;;;;;4.00;1.65;;;;;;;22.25;49.38;101505.00;1880319;74;22648;-66
2021/05/10 10:34:27;;;;;;;4.58;1.80;;;;;;;22.28;49.60;101504.37;1789100;77;27946;-65
2021/05/10 10:37:04;;;;;;;4.00;1.55;;;;;;;22.46;49.89;101493.44;1859636;75;23279;-65
2021/05/10 10:42:32;;;;;;;2.37;1.37;;;;;;;22.49;50.11;101484.52;1862293;75;23324;-65
2021/05/10 10:45:11;;;;;;;3.83;1.90;;;;;;;22.50;50.17;101487.52;1847297;75;28502;-65
2021/05/10 10:47:53;;;;;;;3.27;1.52;;;;;;;22.64;50.13;101479.97;1855927;75;22704;-63
2021/05/10 10:50:29;;;;;;;1.98;1.30;;;;;;;22.63;50.27;101470.82;1887643;74;22712;-66
2021/05/10 10:53:04;;;;;;;2.50;1.60;;;;;;;22.64;50.32;101466.92;1865110;75;22656;-65
2021/05/10 10:55:41;;;;;;;2.72;1.37;;;;;;;22.64;50.34;101462.76;1855247;75;22627;-63
2021/05/10 11:03:53;;;;;;;5.20;1.52;;;;;;;22.67;50.46;101446.04;1859526;75;23355;-63
2021/05/10 11:06:50;;;;;;;4.40;1.87;;;;;;;22.68;50.50;101454.63;1827707;77;22344;-63
2021/05/10 11:09:48;;;;;;;3.83;1.90;;;;;;;22.69;50.50;101453.53;1852401;74;27755;-66
2021/05/10 11:12:50;;;;;;;3.02;1.45;;;;;;;22.85;50.43;101447.00;1855737;75;22710;-65
2021/05/10 11:15:42;;;;;;;4.05;1.80;;;;;;;22.84;50.53;101446.75;1855982;75;23314;-65
2021/05/10 11:18:39;;;;;;;3.05;1.65;;;;;;;22.84;50.55;101443.97;1862618;75;22682;-63
2021/05/10 11:21:30;;;;;;;2.42;1.35;;;;;;;22.84;50.57;101439.81;1825703;76;22688;-66
2021/05/10 11:24:13;;;;;;;4.17;2.00;;;;;;;22.85;50.60;101432.56;1818400;76;27930;-64
2021/05/10 11:27:07;;;;;;;4.27;2.20;;;;;;;22.98;50.49;101423.91;1843505;75;27911;-66
2021/05/10 11:30:03;;;;;;;2.33;1.37;;;;;;;23.13;50.34;101412.38;1860041;75;24239;-65
2021/05/10 11:32:44;;;;;;;4.13;2.00;;;;;;;23.08;50.50;101413.36;1857074;74;38219;-66
2021/05/10 11:35:25;;;;;;;3.27;1.75;;;;;;;23.24;50.26;101413.73;1863615;75;22727;-66
2021/05/10 11:38:01;;;;;;;1.98;1.52;;;;;;;23.21;50.42;101421.33;1859741;75;22664;-65
2021/05/10 11:40:36;;;;;;;4.33;2.00;;;;;;;23.19;50.46;101412.48;1812440;76;28056;-63
2021/05/10 11:43:18;;;;;;;6.20;1.70;;;;;;;23.35;50.20;101397.59;1858430;75;22855;-66
2021/05/10 11:45:54;;;;;;;4.37;1.60;;;;;;;23.32;50.34;101402.41;1858908;76;23325;-63
2021/05/10 11:48:39;;;;;;;3.30;1.90;;;;;;;23.30;50.36;101401.33;1886998;74;23208;-65
2021/05/10 11:51:21;;;;;;;3.12;1.80;;;;;;;23.30;50.39;101394.98;1857241;75;22756;-66
2021/05/10 11:53:58;;;;;;;2.95;1.52;;;;;;;23.31;50.38;101389.66;1878554;74;22696;-63
2021/05/10 11:56:46;;;;;;;3.30;1.67;;;;;;;23.29;50.39;101381.67;1866831;75;23317;-65
2021/05/10 11:59:43;;;;;;;2.60;1.60;;;;;;;23.29;50.39;101380.28;1843752;76;23088;-66
2021/05/10 12:02:23;;;;;;;3.30;1.65;;;;;;;23.29;50.39;101372.52;1860126;75;22769;-64
2021/05/10 12:05:00;;;;;;;2.20;1.50;;;;;;;23.30;50.40;101376.94;1838352;76;22716;-63
2021/05/10 12:07:35;;;;;;;2.55;1.67;;;;;;;23.31;50.39;101373.00;1860230;75;22377;-63
2021/05/10 12:10:12;;;;;;;2.37;1.75;;;;;;;23.31;50.41;101369.66;1824490;76;22756;-65
2021/05/10 12:12:49;;;;;;;3.90;2.10;;;;;;;23.33;50.38;101358.24;1849181;74;28371;-66
2021/05/10 12:15:26;;;;;;;3.10;1.90;;;;;;;23.45;50.21;101356.50;1838022;75;27810;-65
2021/05/10 12:18:01;;;;;;;2.70;1.70;;;;;;;23.60;50.02;101356.02;1864426;75;22692;-65
2021/05/10 12:20:37;;;;;;;2.40;1.77;;;;;;;23.56;50.15;101353.65;1832781;76;22754;-66
2021/05/10 12:23:13;;;;;;;2.87;1.67;;;;;;;23.58;50.17;101354.73;1820225;77;23203;-66
2021/05/10 12:25:48;;;;;;;2.20;1.67;;;;;;;23.57;50.19;101344.19;1856023;74;27764;-65
2021/05/10 12:28:24;;;;;;;2.62;1.67;;;;;;;23.72;49.88;101342.88;1825877;76;22349;-65
2021/05/10 12:31:00;;;;;;;3.50;2.10;;;;;;;23.70;50.01;101336.02;1845251;75;27833;-62